createdAt,value
2018-12-12T00:01:19.315Z,7.27
2018-12-12T00:03:51.881Z,7.27
2018-12-12T00:06:20.848Z,6.87
2018-12-12T00:08:54.942Z,7.77
2018-12-12T00:11:23.950Z,7.00
2018-12-12T00:13:58.283Z,6.73
2018-12-12T00:16:27.314Z,7.43
2018-12-12T00:19:00.810Z,7.63
2018-12-12T00:21:30.326Z,6.73
2018-12-12T00:24:05.200Z,7.40
2018-12-12T00:26:34.491Z,7.10
2018-12-12T00:29:07.280Z,7.40
2018-12-12T00:31:36.337Z,7.67
2018-12-12T00:34:10.885Z,7.87
2018-12-12T00:36:39.826Z,7.60
2018-12-12T00:39:14.338Z,7.87
2018-12-12T00:41:43.635Z,6.93
2018-12-12T00:44:14.909Z,6.97
2018-12-12T00:46:44.552Z,6.87
2018-12-12T00:49:21.030Z,7.43
2018-12-12T00:51:50.342Z,8.23
2018-12-12T00:54:19.764Z,8.23
2018-12-12T00:56:48.742Z,7.37
2018-12-12T00:59:23.666Z,8.00
2018-12-12T01:01:52.710Z,7.60
2018-12-12T01:04:25.166Z,7.80
2018-12-12T01:06:54.844Z,7.67
2018-12-12T01:09:27.536Z,8.07
2018-12-12T01:12:01.619Z,8.20
2018-12-12T01:14:32.037Z,8.53
2018-12-12T01:17:00.961Z,7.33
2018-12-12T01:19:33.047Z,8.03
2018-12-12T01:22:02.403Z,8.83
2018-12-12T01:24:35.178Z,7.63
2018-12-12T01:27:04.078Z,9.00
2018-12-12T01:29:37.500Z,8.30
2018-12-12T01:32:07.165Z,8.30
2018-12-12T01:34:40.654Z,9.33
2018-12-12T01:37:10.133Z,8.57
2018-12-12T01:39:43.792Z,9.30
2018-12-12T01:42:13.180Z,9.10
2018-12-12T01:44:49.464Z,9.97
2018-12-12T01:47:18.402Z,9.77
2018-12-12T01:49:48.846Z,9.40
2018-12-12T01:52:17.760Z,10.60
2018-12-12T01:54:54.060Z,9.63
2018-12-12T01:57:23.112Z,10.00
2018-12-12T01:59:55.539Z,9.97
2018-12-12T02:02:25.082Z,10.80
2018-12-12T02:04:57.446Z,10.10
2018-12-12T02:07:27.231Z,10.00
2018-12-12T02:10:00.622Z,11.17
2018-12-12T02:12:30.119Z,10.27
2018-12-12T02:15:03.660Z,11.87
2018-12-12T02:17:32.954Z,10.47
2018-12-12T02:20:06.142Z,10.87
2018-12-12T02:22:35.126Z,10.67
2018-12-12T02:25:10.509Z,10.60
2018-12-12T02:27:39.815Z,11.00
2018-12-12T02:30:12.304Z,11.13
2018-12-12T02:32:41.195Z,11.50
2018-12-12T02:35:14.136Z,10.60
2018-12-12T02:37:43.039Z,12.07
2018-12-12T02:40:18.612Z,10.97
2018-12-12T02:42:47.847Z,11.60
2018-12-12T02:45:20.463Z,11.23
2018-12-12T02:47:49.770Z,10.47
2018-12-12T02:50:22.856Z,10.80
2018-12-12T02:52:53.007Z,10.77
2018-12-12T02:55:26.098Z,12.00
2018-12-12T02:57:55.500Z,11.13
2018-12-12T03:00:32.042Z,11.93
2018-12-12T03:03:01.364Z,10.40
2018-12-12T03:05:31.226Z,11.03
2018-12-12T03:08:01.235Z,11.27
2018-12-12T03:10:32.539Z,10.47
2018-12-12T03:13:02.145Z,10.80
2018-12-12T03:15:39.162Z,11.47
2018-12-12T03:18:08.637Z,11.30
2018-12-12T03:20:37.911Z,9.87
2018-12-12T03:23:07.635Z,10.57
2018-12-12T03:25:39.803Z,10.90
2018-12-12T03:28:08.930Z,10.70
2018-12-12T03:30:42.303Z,10.53
2018-12-12T03:33:11.696Z,11.57
2018-12-12T03:35:45.291Z,10.93
2018-12-12T03:38:14.792Z,11.23
2018-12-12T03:40:48.571Z,12.03
2018-12-12T03:43:17.822Z,11.77
2018-12-12T03:45:54.332Z,11.60
2018-12-12T03:48:23.806Z,11.30
2018-12-12T03:50:53.891Z,11.70
2018-12-12T03:53:23.424Z,12.50
2018-12-12T03:55:57.306Z,11.20
2018-12-12T03:58:27.217Z,10.47
2018-12-12T04:01:00.167Z,13.07
2018-12-12T04:03:29.807Z,11.80
2018-12-12T04:06:03.042Z,11.67
2018-12-12T04:08:31.928Z,11.60
2018-12-12T04:11:05.474Z,11.67
2018-12-12T04:13:35.011Z,11.77
2018-12-12T04:16:08.283Z,11.13
2018-12-12T04:18:37.753Z,11.80
2018-12-12T04:21:13.264Z,11.53
2018-12-12T04:23:42.182Z,11.40
2018-12-12T04:26:14.641Z,12.87
2018-12-12T04:28:44.074Z,12.00
2018-12-12T04:31:16.983Z,11.77
2018-12-12T04:33:45.889Z,11.73
2018-12-12T04:36:18.271Z,12.33
2018-12-12T04:38:47.446Z,11.23
2018-12-12T04:41:22.273Z,11.10
2018-12-12T04:43:51.200Z,11.00
2018-12-12T04:46:23.331Z,11.50
2018-12-12T04:48:52.214Z,12.20
2018-12-12T04:51:25.648Z,11.00
2018-12-12T04:53:54.983Z,11.80
2018-12-12T04:56:31.354Z,11.07
2018-12-12T04:59:00.435Z,11.97
2018-12-12T05:01:30.723Z,11.70
2018-12-12T05:03:59.607Z,11.60
2018-12-12T05:06:34.455Z,11.27
2018-12-12T05:09:04.596Z,11.27
2018-12-12T05:11:35.346Z,12.50
2018-12-12T05:14:05.023Z,11.27
2018-12-12T05:16:37.442Z,12.43
2018-12-12T05:19:06.360Z,12.13
2018-12-12T05:21:40.279Z,13.30
2018-12-12T05:24:09.381Z,13.37
2018-12-12T05:26:45.537Z,13.17
2018-12-12T05:29:14.793Z,13.30
2018-12-12T05:31:45.092Z,12.87
2018-12-12T05:34:14.030Z,13.43
2018-12-12T05:36:49.742Z,12.30
2018-12-12T05:39:18.702Z,12.50
2018-12-12T05:41:51.314Z,12.37
2018-12-12T05:44:20.599Z,12.43
2018-12-12T05:46:57.700Z,13.30
2018-12-12T05:49:26.934Z,13.43
2018-12-12T05:51:56.778Z,12.63
2018-12-12T05:54:25.879Z,12.90
2018-12-12T05:57:02.784Z,13.13
2018-12-12T05:59:31.760Z,12.27
2018-12-12T06:02:03.754Z,11.87
2018-12-12T06:04:33.011Z,14.13
2018-12-12T06:07:05.487Z,12.77
2018-12-12T06:09:34.458Z,12.63
2018-12-12T06:12:12.473Z,11.07
2018-12-12T06:14:41.438Z,12.60
2018-12-12T06:17:12.916Z,12.97
2018-12-12T06:19:42.371Z,13.83
2018-12-12T06:22:15.369Z,14.40
2018-12-12T06:24:44.726Z,13.37
2018-12-12T06:27:17.944Z,13.07
2018-12-12T06:29:46.886Z,11.97
2018-12-12T06:32:20.042Z,13.53
2018-12-12T06:34:49.012Z,12.43
2018-12-12T06:37:21.782Z,13.10
2018-12-12T06:39:51.095Z,12.90
2018-12-12T06:42:24.050Z,13.00
2018-12-12T06:44:53.025Z,13.87
2018-12-12T06:47:30.637Z,12.27
2018-12-12T06:49:59.630Z,12.93
2018-12-12T06:52:28.606Z,13.93
2018-12-12T06:54:57.907Z,14.37
2018-12-12T06:57:31.016Z,13.93
2018-12-12T06:59:59.960Z,14.13
2018-12-12T07:02:34.036Z,15.07
2018-12-12T07:05:03.390Z,14.73
2018-12-12T07:07:36.324Z,16.33
2018-12-12T07:10:05.690Z,16.50
2018-12-12T07:12:42.152Z,17.67
2018-12-12T07:15:11.175Z,17.30
2018-12-12T07:17:41.528Z,17.97
2018-12-12T07:20:11.959Z,21.00
2018-12-12T07:22:44.832Z,16.30
2018-12-12T07:25:13.750Z,15.90
2018-12-12T07:27:49.295Z,14.67
2018-12-12T07:30:18.372Z,14.23
2018-12-12T07:32:51.639Z,13.17
2018-12-12T07:35:20.818Z,13.47
2018-12-12T07:37:54.050Z,13.67
2018-12-12T07:40:25.583Z,13.37
2018-12-12T07:42:57.819Z,14.83
2018-12-12T07:45:26.871Z,15.17
2018-12-12T07:48:01.543Z,16.20
2018-12-12T07:50:31.034Z,17.17
2018-12-12T07:53:04.510Z,18.20
2018-12-12T07:55:33.958Z,17.37
2018-12-12T07:58:06.831Z,16.93
2018-12-12T08:00:35.846Z,17.90
2018-12-12T08:03:12.765Z,18.67
2018-12-12T08:05:42.008Z,18.63
2018-12-12T08:08:12.870Z,17.70
2018-12-12T08:10:42.134Z,18.13
2018-12-12T08:13:15.036Z,19.37
2018-12-12T08:15:44.181Z,19.70
2018-12-12T08:18:20.754Z,19.63
2018-12-12T08:20:49.800Z,22.17
2018-12-12T08:23:20.263Z,21.47
2018-12-12T08:25:49.339Z,22.63
2018-12-12T08:28:26.500Z,22.60
2018-12-12T08:30:55.559Z,24.40
2018-12-12T08:33:25.226Z,23.70
2018-12-12T08:35:54.445Z,25.33
2018-12-12T08:38:31.262Z,26.50
2018-12-12T08:41:00.559Z,23.33
2018-12-12T08:43:31.027Z,25.33
2018-12-12T08:46:00.040Z,24.70
2018-12-12T08:48:31.852Z,24.47
2018-12-12T08:51:01.960Z,26.77
2018-12-12T08:53:34.993Z,25.00
2018-12-12T08:56:04.365Z,24.27
2018-12-12T08:58:40.876Z,25.77
2018-12-12T09:01:09.842Z,26.80
2018-12-12T09:03:39.252Z,25.83
2018-12-12T09:06:08.237Z,25.80
2018-12-12T09:08:40.846Z,27.23
2018-12-12T09:11:10.301Z,26.43
2018-12-12T09:13:44.198Z,28.27
2018-12-12T09:16:13.757Z,26.60
2018-12-12T09:18:47.269Z,28.60
2018-12-12T09:21:16.314Z,27.37
2018-12-12T09:23:49.789Z,27.20
2018-12-12T09:26:18.837Z,28.37
2018-12-12T09:28:52.356Z,29.13
2018-12-12T09:31:22.896Z,28.83
2018-12-12T09:33:59.573Z,29.90
2018-12-12T09:36:28.627Z,28.83
2018-12-12T09:38:58.913Z,29.00
2018-12-12T09:41:28.052Z,28.67
2018-12-12T09:44:03.355Z,28.30
2018-12-12T09:46:32.817Z,27.60
2018-12-12T09:49:05.862Z,25.73
2018-12-12T09:51:34.838Z,25.67
2018-12-12T09:54:11.983Z,24.63
2018-12-12T09:56:41.087Z,22.60
2018-12-12T09:59:11.699Z,23.87
2018-12-12T10:01:42.085Z,24.93
2018-12-12T10:04:14.813Z,24.60
2018-12-12T10:06:43.818Z,25.07
2018-12-12T10:09:17.187Z,25.10
2018-12-12T10:11:46.185Z,26.30
2018-12-12T10:14:22.375Z,25.87
2018-12-12T10:16:51.648Z,26.10
2018-12-12T10:19:24.575Z,27.00
2018-12-12T10:21:54.317Z,25.87
2018-12-12T10:24:24.787Z,26.53
2018-12-12T10:26:54.154Z,26.50
2018-12-12T10:29:30.647Z,28.77
2018-12-12T10:31:59.608Z,29.33
2018-12-12T10:34:29.046Z,31.33
2018-12-12T10:36:58.059Z,29.80
2018-12-12T10:39:32.423Z,28.77
2018-12-12T10:42:01.887Z,27.57
2018-12-12T10:44:34.948Z,28.07
2018-12-12T10:47:04.585Z,28.83
2018-12-12T10:49:36.894Z,29.87
2018-12-12T10:52:05.979Z,27.77
2018-12-12T10:54:43.543Z,27.47
2018-12-12T10:57:12.621Z,28.80
2018-12-12T10:59:42.576Z,28.33
2018-12-12T11:02:17.583Z,26.93
2018-12-12T11:04:46.767Z,27.37
2018-12-12T11:07:15.892Z,26.00
2018-12-12T11:09:47.172Z,27.23
2018-12-12T11:12:16.177Z,28.07
2018-12-12T11:14:49.502Z,28.70
2018-12-12T11:17:18.516Z,27.53
2018-12-12T11:19:52.542Z,27.13
2018-12-12T11:22:21.642Z,28.00
2018-12-12T11:24:57.002Z,29.63
2018-12-12T11:27:26.869Z,28.83
2018-12-12T11:29:59.189Z,28.60
2018-12-12T11:32:28.248Z,29.30
2018-12-12T11:35:01.891Z,29.17
2018-12-12T11:37:47.314Z,28.53
2018-12-12T11:40:17.021Z,28.60
2018-12-12T11:42:46.358Z,28.73
2018-12-12T11:45:15.775Z,28.10
2018-12-12T11:47:45.564Z,29.77
2018-12-12T11:50:14.691Z,28.33
2018-12-12T11:52:43.832Z,26.20
2018-12-12T11:55:13.967Z,28.93
2018-12-12T11:57:43.199Z,29.23
2018-12-12T12:00:20.123Z,27.23
2018-12-12T12:02:49.630Z,27.97
2018-12-12T12:05:18.862Z,29.00
2018-12-12T12:07:48.303Z,29.20
2018-12-12T12:10:25.107Z,27.70
2018-12-12T12:12:54.303Z,28.43
2018-12-12T12:15:23.499Z,27.13
2018-12-12T12:17:52.878Z,27.23
2018-12-12T12:20:29.693Z,25.80
2018-12-12T12:22:59.003Z,26.60
2018-12-12T12:25:29.149Z,26.77
2018-12-12T12:27:59.207Z,26.37
2018-12-12T12:30:35.719Z,26.40
2018-12-12T12:33:05.155Z,26.93
2018-12-12T12:35:34.206Z,25.53
2018-12-12T12:38:03.366Z,27.77
2018-12-12T12:40:36.145Z,26.57
2018-12-12T12:43:05.772Z,26.67
2018-12-12T12:45:38.663Z,26.80
2018-12-12T12:48:07.746Z,27.17
2018-12-12T12:50:45.215Z,26.23
2018-12-12T12:53:14.854Z,26.40
2018-12-12T12:55:44.012Z,25.00
2018-12-12T12:58:13.461Z,24.27
2018-12-12T13:00:50.674Z,23.13
2018-12-12T13:03:20.010Z,25.30
2018-12-12T13:07:18.455Z,22.43
2018-12-12T13:09:51.313Z,21.63
2018-12-12T13:12:20.406Z,21.63
2018-12-12T13:14:57.938Z,22.03
2018-12-12T13:17:28.616Z,21.40
2018-12-12T13:21:27.059Z,19.33
2018-12-12T13:24:01.668Z,18.93
2018-12-12T13:33:34.082Z,17.33
2018-12-12T13:36:07.431Z,16.77
2018-12-12T13:38:37.317Z,16.00
2018-12-12T13:41:14.452Z,15.40
2018-12-12T13:43:43.506Z,14.07
2018-12-12T13:46:12.576Z,13.27
2018-12-12T13:48:41.616Z,13.03
2018-12-12T13:51:18.467Z,12.43
2018-12-12T13:53:47.471Z,12.10
2018-12-12T13:56:17.680Z,11.33
2018-12-12T13:58:46.969Z,10.37
2018-12-12T14:01:23.014Z,10.50
2018-12-12T14:03:52.254Z,10.00
2018-12-12T14:06:24.443Z,10.07
2018-12-12T14:08:53.707Z,9.87
2018-12-12T14:11:25.782Z,8.93
2018-12-12T14:13:54.818Z,8.40
2018-12-12T14:16:31.774Z,8.27
2018-12-12T14:19:00.958Z,8.67
2018-12-12T14:21:38.760Z,7.77
2018-12-12T14:24:08.079Z,8.53
2018-12-12T14:26:37.213Z,7.57
2018-12-12T14:29:07.128Z,7.67
2018-12-12T14:31:39.253Z,7.33
2018-12-12T14:34:08.249Z,7.50
2018-12-12T14:36:41.893Z,7.20
2018-12-12T14:39:10.882Z,7.47
2018-12-12T14:41:44.480Z,8.80
2018-12-12T14:44:13.779Z,7.57
2018-12-12T14:46:49.574Z,8.30
2018-12-12T14:49:18.827Z,8.00
2018-12-12T14:51:55.357Z,8.43
2018-12-12T14:54:24.360Z,8.33
2018-12-12T14:56:54.745Z,8.10
2018-12-12T14:59:23.910Z,6.40
2018-12-12T15:02:01.190Z,7.37
2018-12-12T15:04:35.723Z,7.53
2018-12-12T15:07:01.429Z,7.77
2018-12-12T15:09:30.728Z,6.83
2018-12-12T15:12:03.495Z,7.27
2018-12-12T15:14:32.532Z,7.90
2018-12-12T15:17:08.791Z,6.63
2018-12-12T15:19:38.210Z,7.50
2018-12-12T15:22:11.204Z,8.07
2018-12-12T15:24:40.235Z,7.93
2018-12-12T15:27:16.283Z,8.07
2018-12-12T15:29:45.340Z,7.57
2018-12-12T15:32:15.325Z,7.90
2018-12-12T15:34:44.687Z,7.77
2018-12-12T15:37:20.975Z,7.13
2018-12-12T15:39:50.053Z,7.67
2018-12-12T15:42:20.103Z,8.23
2018-12-12T15:44:49.137Z,7.83
2018-12-12T15:47:22.213Z,8.00
2018-12-12T15:49:51.195Z,8.23
2018-12-12T15:52:27.627Z,7.90
2018-12-12T15:54:56.720Z,8.03
2018-12-12T15:57:29.383Z,7.50
2018-12-12T15:59:58.484Z,6.37
2018-12-12T16:02:32.490Z,7.67
2018-12-12T16:05:01.576Z,7.50
2018-12-12T16:07:33.913Z,8.17
2018-12-12T16:10:05.015Z,8.43
2018-12-12T16:12:37.207Z,7.37
2018-12-12T16:15:06.473Z,7.33
2018-12-12T16:17:43.325Z,7.80
2018-12-12T16:20:12.488Z,7.50
2018-12-12T16:22:41.800Z,7.50
2018-12-12T16:25:10.971Z,8.83
2018-12-12T16:27:44.904Z,8.80
2018-12-12T16:30:15.336Z,7.97
2018-12-12T16:32:48.459Z,9.67
2018-12-12T16:35:17.611Z,10.07
2018-12-12T16:37:54.629Z,9.73
2018-12-12T16:40:23.812Z,9.67
2018-12-12T16:42:54.590Z,9.53
2018-12-12T16:45:23.803Z,10.00
2018-12-12T16:48:00.946Z,11.17
2018-12-12T16:50:30.362Z,12.37
2018-12-12T16:53:00.573Z,10.50
2018-12-12T16:55:29.666Z,10.10
2018-12-12T16:58:03.885Z,10.17
2018-12-12T17:00:33.134Z,9.87
2018-12-12T17:03:09.801Z,9.33
2018-12-12T17:05:39.160Z,9.33
2018-12-12T17:08:12.255Z,8.60
2018-12-12T17:10:41.959Z,9.60
2018-12-12T17:13:18.863Z,9.13
2018-12-12T17:15:48.100Z,8.53
2018-12-12T17:18:17.218Z,8.23
2018-12-12T17:20:46.756Z,8.87
2018-12-12T17:23:19.539Z,9.60
2018-12-12T17:25:48.805Z,9.57
2018-12-12T17:28:21.734Z,9.50
2018-12-12T17:30:50.749Z,10.43
2018-12-12T17:33:24.630Z,10.03
2018-12-12T17:35:53.955Z,9.90
2018-12-12T17:38:26.401Z,10.57
2018-12-12T17:40:55.494Z,9.40
2018-12-12T17:43:33.795Z,10.20
2018-12-12T17:46:03.292Z,10.33
2018-12-12T17:48:32.461Z,9.63
2018-12-12T17:51:01.942Z,9.23
2018-12-12T17:53:34.398Z,9.53
2018-12-12T17:56:03.444Z,9.70
2018-12-12T17:58:40.056Z,9.53
2018-12-12T18:01:09.627Z,9.77
2018-12-12T18:03:41.574Z,9.30
2018-12-12T18:06:10.649Z,9.80
2018-12-12T18:08:42.869Z,9.57
2018-12-12T18:11:12.130Z,9.67
2018-12-12T18:13:48.984Z,9.90
2018-12-12T18:16:18.401Z,10.10
2018-12-12T18:18:48.109Z,9.87
2018-12-12T18:21:17.205Z,9.20
2018-12-12T18:23:52.418Z,9.60
2018-12-12T18:26:23.312Z,10.97
2018-12-12T18:28:56.204Z,10.07
2018-12-12T18:31:25.848Z,9.37
2018-12-12T18:33:58.393Z,9.90
2018-12-12T18:36:27.653Z,9.77
2018-12-12T18:39:07.250Z,10.67
2018-12-12T18:41:36.596Z,9.43
2018-12-12T18:44:06.317Z,10.07
2018-12-12T18:46:35.388Z,9.17
2018-12-12T18:49:08.956Z,7.70
2018-12-12T18:51:38.258Z,9.03
2018-12-12T18:54:11.371Z,7.90
2018-12-12T18:56:40.645Z,7.60
2018-12-12T18:59:19.179Z,7.97
2018-12-12T19:01:48.538Z,8.33
2018-12-12T19:04:17.641Z,7.63
2018-12-12T19:06:46.694Z,8.07
2018-12-12T19:09:21.023Z,8.00
2018-12-12T19:11:51.082Z,8.07
2018-12-12T19:14:24.076Z,7.23
2018-12-12T19:16:53.419Z,7.83
2018-12-12T19:19:26.361Z,8.67
2018-12-12T19:21:55.807Z,7.50
2018-12-12T19:24:28.523Z,7.50
2018-12-12T19:26:57.790Z,8.97
2018-12-12T19:29:32.169Z,8.33
2018-12-12T19:32:01.392Z,8.20
2018-12-12T19:34:35.315Z,8.27
2018-12-12T19:37:04.890Z,7.20
2018-12-12T19:39:41.324Z,7.30
2018-12-12T19:42:10.736Z,7.13
2018-12-12T19:44:41.235Z,8.20
2018-12-12T19:47:10.563Z,7.10
2018-12-12T19:49:43.694Z,7.47
2018-12-12T19:52:13.369Z,7.43
2018-12-12T19:54:46.215Z,7.03
2018-12-12T19:57:15.571Z,7.10
2018-12-12T19:59:48.821Z,6.83
2018-12-12T20:02:19.028Z,6.53
2018-12-12T20:04:52.469Z,6.90
2018-12-12T20:07:21.754Z,7.30
2018-12-12T20:09:54.282Z,7.50
2018-12-12T20:12:23.771Z,6.43
2018-12-12T20:14:56.526Z,5.90
2018-12-12T20:17:25.810Z,7.07
2018-12-12T20:19:59.835Z,7.00
2018-12-12T20:22:29.481Z,6.30
2018-12-12T20:25:06.357Z,7.13
2018-12-12T20:27:35.901Z,6.37
2018-12-12T20:30:06.848Z,6.10
2018-12-12T20:32:36.188Z,6.07
2018-12-12T20:35:08.778Z,6.60
2018-12-12T20:37:38.198Z,5.27
2018-12-12T20:40:15.485Z,5.60
2018-12-12T20:42:44.943Z,5.77
2018-12-12T20:45:17.547Z,5.90
2018-12-12T20:47:46.840Z,5.43
2018-12-12T20:50:18.282Z,6.27
2018-12-12T20:52:47.708Z,5.67
2018-12-12T20:55:21.339Z,5.57
2018-12-12T20:57:51.765Z,5.70
2018-12-12T21:00:24.555Z,5.43
2018-12-12T21:02:53.943Z,5.33
2018-12-12T21:05:28.111Z,5.67
2018-12-12T21:07:57.659Z,6.33
2018-12-12T21:10:28.235Z,6.00
2018-12-12T21:12:57.546Z,5.53
2018-12-12T21:15:30.647Z,5.33
2018-12-12T21:18:00.026Z,5.40
2018-12-12T21:20:32.845Z,6.30
2018-12-12T21:23:02.696Z,5.37
2018-12-12T21:25:36.328Z,5.67
2018-12-12T21:28:05.518Z,5.53
2018-12-12T21:30:38.610Z,6.30
2018-12-12T21:33:08.052Z,5.70
2018-12-12T21:35:41.502Z,5.37
2018-12-12T21:38:11.089Z,5.73
2018-12-12T21:40:48.115Z,5.97
2018-12-12T21:43:18.245Z,5.47
2018-12-12T21:45:47.582Z,6.10
2018-12-12T21:48:16.942Z,5.87
2018-12-12T21:50:53.577Z,5.77
2018-12-12T21:53:22.783Z,5.50
2018-12-12T21:55:53.573Z,5.90
2018-12-12T21:58:22.742Z,4.90
2018-12-12T22:00:55.606Z,5.83
2018-12-12T22:03:24.746Z,5.57
2018-12-12T22:06:07.364Z,4.83
2018-12-12T22:08:32.794Z,6.20
2018-12-12T22:11:03.011Z,5.53
2018-12-12T22:13:33.135Z,5.27
2018-12-12T22:16:07.068Z,5.63
2018-12-12T22:18:36.392Z,4.90
2018-12-12T22:21:08.468Z,5.43
2018-12-12T22:23:37.734Z,5.43
2018-12-12T22:26:17.095Z,4.77
2018-12-12T22:28:46.945Z,5.33
2018-12-12T22:31:16.200Z,5.40
2018-12-12T22:33:45.644Z,6.10
2018-12-12T22:36:18.248Z,4.87
2018-12-12T22:38:47.345Z,4.27
2018-12-12T22:41:19.233Z,3.93
2018-12-12T22:43:48.340Z,5.83
2018-12-12T22:46:24.721Z,4.93
2018-12-12T22:48:53.970Z,3.93
2018-12-12T22:51:24.415Z,4.20
2018-12-12T22:53:53.820Z,4.30
2018-12-12T22:56:26.251Z,4.07
2018-12-12T22:58:55.331Z,4.07
2018-12-12T23:01:32.980Z,5.13
2018-12-12T23:04:02.179Z,5.37
2018-12-12T23:06:31.861Z,4.83
2018-12-12T23:09:01.338Z,4.97
2018-12-12T23:11:38.965Z,3.90
2018-12-12T23:14:08.112Z,4.00
2018-12-12T23:16:38.365Z,4.93
2018-12-12T23:19:07.453Z,4.23
2018-12-12T23:21:43.703Z,4.47
2018-12-12T23:24:12.691Z,4.33
2018-12-12T23:26:43.016Z,4.67
2018-12-12T23:29:12.290Z,4.63
2018-12-12T23:31:46.874Z,4.37
2018-12-12T23:34:15.919Z,5.03
2018-12-12T23:36:49.018Z,4.13
2018-12-12T23:39:18.075Z,4.60
2018-12-12T23:41:50.938Z,3.60
2018-12-12T23:44:20.285Z,4.07
2018-12-12T23:46:56.698Z,4.43
2018-12-12T23:49:25.790Z,5.37
2018-12-12T23:51:57.893Z,4.53
2018-12-12T23:54:26.892Z,3.57
2018-12-12T23:57:03.537Z,3.93
2018-12-12T23:59:32.851Z,4.00
